sensor_id;sensor_type;location;lat;lon;timestamp;P1;durP1;ratioP1;P2;durP2;ratioP2
20593;SDS011;10455;48.732;10.266;2022-08-19T00:03:56;70.18;;;54.40;;
20593;SDS011;10455;48.732;10.266;2022-08-19T00:08:59;53.42;;;47.58;;
20593;SDS011;10455;48.732;10.266;2022-08-19T00:14:01;59.67;;;51.10;;
20593;SDS011;10455;48.732;10.266;2022-08-19T00:19:06;59.90;;;52.13;;
20593;SDS011;10455;48.732;10.266;2022-08-19T00:24:09;64.40;;;52.03;;
20593;SDS011;10455;48.732;10.266;2022-08-19T00:29:13;63.53;;;54.38;;
20593;SDS011;10455;48.732;10.266;2022-08-19T00:34:19;70.78;;;57.67;;
20593;SDS011;10455;48.732;10.266;2022-08-19T00:39:21;63.30;;;55.70;;
20593;SDS011;10455;48.732;10.266;2022-08-19T00:44:25;65.70;;;58.03;;
20593;SDS011;10455;48.732;10.266;2022-08-19T00:49:32;69.82;;;56.60;;
20593;SDS011;10455;48.732;10.266;2022-08-19T00:54:38;78.55;;;60.40;;
20593;SDS011;10455;48.732;10.266;2022-08-19T00:59:42;82.88;;;62.53;;
20593;SDS011;10455;48.732;10.266;2022-08-19T01:04:48;77.20;;;60.22;;
20593;SDS011;10455;48.732;10.266;2022-08-19T01:09:51;76.40;;;58.50;;
20593;SDS011;10455;48.732;10.266;2022-08-19T01:14:53;83.97;;;61.10;;
20593;SDS011;10455;48.732;10.266;2022-08-19T01:19:58;75.68;;;60.03;;
20593;SDS011;10455;48.732;10.266;2022-08-19T01:25:02;76.80;;;60.13;;
20593;SDS011;10455;48.732;10.266;2022-08-19T01:30:05;85.65;;;64.80;;
20593;SDS011;10455;48.732;10.266;2022-08-19T01:35:10;84.40;;;61.83;;
20593;SDS011;10455;48.732;10.266;2022-08-19T01:40:15;92.53;;;65.65;;
20593;SDS011;10455;48.732;10.266;2022-08-19T01:45:19;89.75;;;64.63;;
20593;SDS011;10455;48.732;10.266;2022-08-19T01:50:23;97.03;;;68.20;;
20593;SDS011;10455;48.732;10.266;2022-08-19T01:55:27;96.40;;;67.20;;
20593;SDS011;10455;48.732;10.266;2022-08-19T02:00:30;95.28;;;65.05;;
20593;SDS011;10455;48.732;10.266;2022-08-19T02:05:33;125.35;;;77.22;;
20593;SDS011;10455;48.732;10.266;2022-08-19T02:10:39;107.43;;;71.63;;
20593;SDS011;10455;48.732;10.266;2022-08-19T02:15:42;93.88;;;66.22;;
20593;SDS011;10455;48.732;10.266;2022-08-19T02:20:45;102.50;;;67.85;;
20593;SDS011;10455;48.732;10.266;2022-08-19T02:25:49;118.88;;;71.63;;
20593;SDS011;10455;48.732;10.266;2022-08-19T02:30:53;105.70;;;70.13;;
20593;SDS011;10455;48.732;10.266;2022-08-19T02:35:55;111.47;;;73.63;;
20593;SDS011;10455;48.732;10.266;2022-08-19T02:40:59;112.05;;;74.60;;
20593;SDS011;10455;48.732;10.266;2022-08-19T02:46:10;139.02;;;82.40;;
20593;SDS011;10455;48.732;10.266;2022-08-19T02:51:17;118.55;;;74.90;;
20593;SDS011;10455;48.732;10.266;2022-08-19T02:56:22;155.75;;;86.18;;
20593;SDS011;10455;48.732;10.266;2022-08-19T03:01:27;133.35;;;81.80;;
20593;SDS011;10455;48.732;10.266;2022-08-19T03:06:31;126.90;;;80.60;;
20593;SDS011;10455;48.732;10.266;2022-08-19T03:11:38;156.13;;;88.82;;
20593;SDS011;10455;48.732;10.266;2022-08-19T03:16:43;122.10;;;78.03;;
20593;SDS011;10455;48.732;10.266;2022-08-19T03:21:47;132.93;;;81.30;;
20593;SDS011;10455;48.732;10.266;2022-08-19T03:26:51;114.78;;;76.05;;
20593;SDS011;10455;48.732;10.266;2022-08-19T03:31:58;129.38;;;80.15;;
20593;SDS011;10455;48.732;10.266;2022-08-19T03:37:03;115.65;;;75.93;;
20593;SDS011;10455;48.732;10.266;2022-08-19T03:42:08;107.80;;;72.80;;
20593;SDS011;10455;48.732;10.266;2022-08-19T03:47:10;155.65;;;85.88;;
20593;SDS011;10455;48.732;10.266;2022-08-19T03:52:16;149.50;;;84.75;;
20593;SDS011;10455;48.732;10.266;2022-08-19T03:57:19;102.80;;;71.68;;
20593;SDS011;10455;48.732;10.266;2022-08-19T04:02:21;136.75;;;83.53;;
20593;SDS011;10455;48.732;10.266;2022-08-19T04:07:23;143.27;;;83.88;;
20593;SDS011;10455;48.732;10.266;2022-08-19T04:12:27;129.43;;;82.15;;
20593;SDS011;10455;48.732;10.266;2022-08-19T04:17:30;150.18;;;85.28;;
20593;SDS011;10455;48.732;10.266;2022-08-19T04:22:32;130.95;;;82.30;;
20593;SDS011;10455;48.732;10.266;2022-08-19T04:27:35;140.90;;;83.97;;
20593;SDS011;10455;48.732;10.266;2022-08-19T04:32:38;125.18;;;82.72;;
20593;SDS011;10455;48.732;10.266;2022-08-19T04:37:40;122.78;;;81.03;;
20593;SDS011;10455;48.732;10.266;2022-08-19T04:42:44;114.43;;;77.85;;
20593;SDS011;10455;48.732;10.266;2022-08-19T04:47:46;111.07;;;78.22;;
20593;SDS011;10455;48.732;10.266;2022-08-19T04:52:49;89.82;;;67.22;;
20593;SDS011;10455;48.732;10.266;2022-08-19T04:57:54;89.10;;;67.90;;
20593;SDS011;10455;48.732;10.266;2022-08-19T05:02:56;79.47;;;63.65;;
20593;SDS011;10455;48.732;10.266;2022-08-19T05:07:58;87.10;;;68.03;;
20593;SDS011;10455;48.732;10.266;2022-08-19T05:13:01;85.57;;;68.82;;
20593;SDS011;10455;48.732;10.266;2022-08-19T05:18:04;102.68;;;74.10;;
20593;SDS011;10455;48.732;10.266;2022-08-19T05:23:24;107.43;;;77.72;;
20593;SDS011;10455;48.732;10.266;2022-08-19T05:28:27;98.45;;;73.00;;
20593;SDS011;10455;48.732;10.266;2022-08-19T05:33:29;94.57;;;71.22;;
20593;SDS011;10455;48.732;10.266;2022-08-19T05:38:31;91.68;;;69.57;;
20593;SDS011;10455;48.732;10.266;2022-08-19T05:43:35;103.53;;;73.95;;
20593;SDS011;10455;48.732;10.266;2022-08-19T05:48:38;102.07;;;72.63;;
20593;SDS011;10455;48.732;10.266;2022-08-19T05:53:40;106.95;;;74.43;;
20593;SDS011;10455;48.732;10.266;2022-08-19T05:58:44;76.03;;;62.40;;
20593;SDS011;10455;48.732;10.266;2022-08-19T06:03:47;89.45;;;65.80;;
20593;SDS011;10455;48.732;10.266;2022-08-19T06:08:49;79.30;;;61.63;;
20593;SDS011;10455;48.732;10.266;2022-08-19T06:13:53;78.80;;;61.78;;
20593;SDS011;10455;48.732;10.266;2022-08-19T06:18:56;76.03;;;60.75;;
20593;SDS011;10455;48.732;10.266;2022-08-19T06:24:00;86.10;;;65.57;;
20593;SDS011;10455;48.732;10.266;2022-08-19T06:29:05;75.55;;;60.63;;
20593;SDS011;10455;48.732;10.266;2022-08-19T06:34:09;78.88;;;60.85;;
20593;SDS011;10455;48.732;10.266;2022-08-19T06:39:12;78.35;;;60.67;;
20593;SDS011;10455;48.732;10.266;2022-08-19T06:44:18;67.45;;;56.55;;
20593;SDS011;10455;48.732;10.266;2022-08-19T06:49:21;68.20;;;56.00;;
20593;SDS011;10455;48.732;10.266;2022-08-19T06:54:25;76.85;;;61.55;;
20593;SDS011;10455;48.732;10.266;2022-08-19T06:59:31;77.05;;;59.72;;
20593;SDS011;10455;48.732;10.266;2022-08-19T07:04:37;71.97;;;57.88;;
20593;SDS011;10455;48.732;10.266;2022-08-19T07:09:40;86.88;;;63.60;;
20593;SDS011;10455;48.732;10.266;2022-08-19T07:14:44;75.93;;;60.83;;
20593;SDS011;10455;48.732;10.266;2022-08-19T07:19:47;77.13;;;60.60;;
20593;SDS011;10455;48.732;10.266;2022-08-19T07:24:50;74.20;;;60.83;;
20593;SDS011;10455;48.732;10.266;2022-08-19T07:29:54;72.43;;;58.22;;
20593;SDS011;10455;48.732;10.266;2022-08-19T07:34:56;88.78;;;64.35;;
20593;SDS011;10455;48.732;10.266;2022-08-19T07:40:00;101.00;;;71.35;;
20593;SDS011;10455;48.732;10.266;2022-08-19T07:45:04;102.82;;;71.75;;
20593;SDS011;10455;48.732;10.266;2022-08-19T07:50:09;83.28;;;61.92;;
20593;SDS011;10455;48.732;10.266;2022-08-19T07:55:11;113.35;;;75.40;;
20593;SDS011;10455;48.732;10.266;2022-08-19T08:00:15;115.15;;;78.18;;
20593;SDS011;10455;48.732;10.266;2022-08-19T08:05:18;126.30;;;83.40;;
20593;SDS011;10455;48.732;10.266;2022-08-19T08:10:37;103.00;;;71.38;;
20593;SDS011;10455;48.732;10.266;2022-08-19T08:15:41;112.20;;;76.63;;
20593;SDS011;10455;48.732;10.266;2022-08-19T08:20:44;84.07;;;64.88;;
20593;SDS011;10455;48.732;10.266;2022-08-19T08:25:46;86.30;;;65.07;;
20593;SDS011;10455;48.732;10.266;2022-08-19T08:30:51;100.65;;;74.93;;
20593;SDS011;10455;48.732;10.266;2022-08-19T08:35:53;73.10;;;60.50;;
20593;SDS011;10455;48.732;10.266;2022-08-19T08:40:57;71.30;;;57.97;;
20593;SDS011;10455;48.732;10.266;2022-08-19T08:46:08;76.65;;;61.05;;
20593;SDS011;10455;48.732;10.266;2022-08-19T08:51:17;64.60;;;55.33;;
20593;SDS011;10455;48.732;10.266;2022-08-19T08:56:23;77.38;;;62.17;;
20593;SDS011;10455;48.732;10.266;2022-08-19T09:01:26;67.53;;;56.88;;
20593;SDS011;10455;48.732;10.266;2022-08-19T09:06:32;70.22;;;57.95;;
20593;SDS011;10455;48.732;10.266;2022-08-19T09:11:52;68.95;;;56.15;;
20593;SDS011;10455;48.732;10.266;2022-08-19T09:17:03;73.50;;;59.25;;
20593;SDS011;10455;48.732;10.266;2022-08-19T09:22:08;76.03;;;61.53;;
20593;SDS011;10455;48.732;10.266;2022-08-19T09:27:10;107.25;;;72.82;;
20593;SDS011;10455;48.732;10.266;2022-08-19T09:32:13;106.50;;;73.63;;
20593;SDS011;10455;48.732;10.266;2022-08-19T09:37:16;86.13;;;66.13;;
20593;SDS011;10455;48.732;10.266;2022-08-19T09:42:18;123.22;;;83.80;;
20593;SDS011;10455;48.732;10.266;2022-08-19T09:47:21;79.18;;;62.70;;
20593;SDS011;10455;48.732;10.266;2022-08-19T09:52:23;77.43;;;62.50;;
20593;SDS011;10455;48.732;10.266;2022-08-19T09:57:26;64.32;;;55.55;;
20593;SDS011;10455;48.732;10.266;2022-08-19T10:02:29;61.83;;;54.40;;
20593;SDS011;10455;48.732;10.266;2022-08-19T10:07:31;66.97;;;58.03;;
20593;SDS011;10455;48.732;10.266;2022-08-19T10:12:33;70.47;;;58.38;;
20593;SDS011;10455;48.732;10.266;2022-08-19T10:17:38;56.17;;;50.30;;
20593;SDS011;10455;48.732;10.266;2022-08-19T10:22:40;62.45;;;52.60;;
20593;SDS011;10455;48.732;10.266;2022-08-19T10:27:43;65.20;;;55.83;;
20593;SDS011;10455;48.732;10.266;2022-08-19T10:32:47;60.92;;;50.65;;
20593;SDS011;10455;48.732;10.266;2022-08-19T10:37:49;62.85;;;53.47;;
20593;SDS011;10455;48.732;10.266;2022-08-19T10:42:51;56.63;;;50.35;;
20593;SDS011;10455;48.732;10.266;2022-08-19T10:47:54;53.38;;;47.50;;
20593;SDS011;10455;48.732;10.266;2022-08-19T10:52:56;55.25;;;47.92;;
20593;SDS011;10455;48.732;10.266;2022-08-19T10:57:58;62.10;;;52.53;;
20593;SDS011;10455;48.732;10.266;2022-08-19T11:03:02;57.45;;;50.63;;
20593;SDS011;10455;48.732;10.266;2022-08-19T11:08:04;56.60;;;49.78;;
20593;SDS011;10455;48.732;10.266;2022-08-19T11:13:07;52.90;;;47.25;;
20593;SDS011;10455;48.732;10.266;2022-08-19T11:18:11;44.58;;;40.15;;
20593;SDS011;10455;48.732;10.266;2022-08-19T11:23:13;47.42;;;42.38;;
20593;SDS011;10455;48.732;10.266;2022-08-19T11:28:15;41.25;;;37.17;;
20593;SDS011;10455;48.732;10.266;2022-08-19T11:33:20;39.42;;;35.45;;
20593;SDS011;10455;48.732;10.266;2022-08-19T11:38:22;39.72;;;35.95;;
20593;SDS011;10455;48.732;10.266;2022-08-19T11:43:24;36.03;;;32.45;;
20593;SDS011;10455;48.732;10.266;2022-08-19T11:48:28;38.60;;;34.53;;
20593;SDS011;10455;48.732;10.266;2022-08-19T11:53:30;35.22;;;31.83;;
20593;SDS011;10455;48.732;10.266;2022-08-19T11:58:34;30.10;;;27.23;;
20593;SDS011;10455;48.732;10.266;2022-08-19T12:03:38;35.75;;;32.17;;
20593;SDS011;10455;48.732;10.266;2022-08-19T12:08:40;35.47;;;32.13;;
20593;SDS011;10455;48.732;10.266;2022-08-19T12:13:43;33.55;;;30.40;;
20593;SDS011;10455;48.732;10.266;2022-08-19T12:18:47;33.67;;;30.58;;
20593;SDS011;10455;48.732;10.266;2022-08-19T12:23:51;33.92;;;30.63;;
20593;SDS011;10455;48.732;10.266;2022-08-19T12:28:54;56.17;;;45.15;;
20593;SDS011;10455;48.732;10.266;2022-08-19T12:34:00;61.45;;;48.75;;
20593;SDS011;10455;48.732;10.266;2022-08-19T12:39:02;74.80;;;49.20;;
20593;SDS011;10455;48.732;10.266;2022-08-19T12:44:06;80.28;;;54.58;;
20593;SDS011;10455;48.732;10.266;2022-08-19T12:49:10;57.00;;;20.13;;
20593;SDS011;10455;48.732;10.266;2022-08-19T12:54:12;4.13;;;3.75;;
20593;SDS011;10455;48.732;10.266;2022-08-19T12:59:14;0.20;;;0.20;;
20593;SDS011;10455;48.732;10.266;2022-08-19T13:04:19;0.63;;;0.63;;
20593;SDS011;10455;48.732;10.266;2022-08-19T13:09:21;0.15;;;0.15;;
20593;SDS011;10455;48.732;10.266;2022-08-19T13:14:24;1.55;;;1.45;;
20593;SDS011;10455;48.732;10.266;2022-08-19T13:19:27;0.95;;;0.40;;
20593;SDS011;10455;48.732;10.266;2022-08-19T13:24:31;0.10;;;0.10;;
20593;SDS011;10455;48.732;10.266;2022-08-19T13:29:33;1.40;;;1.40;;
20593;SDS011;10455;48.732;10.266;2022-08-19T13:34:54;0.30;;;0.30;;
20593;SDS011;10455;48.732;10.266;2022-08-19T13:39:56;1.58;;;0.98;;
20593;SDS011;10455;48.732;10.266;2022-08-19T13:44:59;0.38;;;0.38;;
20593;SDS011;10455;48.732;10.266;2022-08-19T13:50:04;0.10;;;0.10;;
20593;SDS011;10455;48.732;10.266;2022-08-19T13:55:07;2.25;;;1.33;;
20593;SDS011;10455;48.732;10.266;2022-08-19T14:00:11;0.38;;;0.38;;
20593;SDS011;10455;48.732;10.266;2022-08-19T14:05:19;0.10;;;0.10;;
20593;SDS011;10455;48.732;10.266;2022-08-19T14:10:22;1.33;;;0.22;;
20593;SDS011;10455;48.732;10.266;2022-08-19T14:15:26;0.20;;;0.20;;
20593;SDS011;10455;48.732;10.266;2022-08-19T14:20:30;0.00;;;0.00;;
20593;SDS011;10455;48.732;10.266;2022-08-19T14:25:34;0.10;;;0.10;;
20593;SDS011;10455;48.732;10.266;2022-08-19T14:30:37;0.10;;;0.10;;
20593;SDS011;10455;48.732;10.266;2022-08-19T14:35:40;0.20;;;0.20;;
20593;SDS011;10455;48.732;10.266;2022-08-19T14:40:44;0.10;;;0.10;;
20593;SDS011;10455;48.732;10.266;2022-08-19T14:45:47;0.10;;;0.10;;
20593;SDS011;10455;48.732;10.266;2022-08-19T14:50:50;0.03;;;0.03;;
20593;SDS011;10455;48.732;10.266;2022-08-19T14:55:52;0.10;;;0.10;;
20593;SDS011;10455;48.732;10.266;2022-08-19T15:00:54;0.52;;;0.52;;
20593;SDS011;10455;48.732;10.266;2022-08-19T15:05:59;0.13;;;0.13;;
20593;SDS011;10455;48.732;10.266;2022-08-19T15:11:02;0.10;;;0.10;;
20593;SDS011;10455;48.732;10.266;2022-08-19T15:16:09;0.10;;;0.10;;
20593;SDS011;10455;48.732;10.266;2022-08-19T15:21:14;0.10;;;0.10;;
20593;SDS011;10455;48.732;10.266;2022-08-19T15:26:18;0.10;;;0.10;;
20593;SDS011;10455;48.732;10.266;2022-08-19T15:31:21;0.10;;;0.10;;
20593;SDS011;10455;48.732;10.266;2022-08-19T15:36:25;0.57;;;0.57;;
20593;SDS011;10455;48.732;10.266;2022-08-19T15:41:28;1.55;;;1.45;;
20593;SDS011;10455;48.732;10.266;2022-08-19T15:46:32;0.22;;;0.22;;
20593;SDS011;10455;48.732;10.266;2022-08-19T15:51:37;0.20;;;0.20;;
20593;SDS011;10455;48.732;10.266;2022-08-19T15:56:42;0.25;;;0.25;;
20593;SDS011;10455;48.732;10.266;2022-08-19T16:02:01;0.40;;;0.40;;
20593;SDS011;10455;48.732;10.266;2022-08-19T16:07:22;0.00;;;0.00;;
20593;SDS011;10455;48.732;10.266;2022-08-19T16:12:24;0.10;;;0.10;;
20593;SDS011;10455;48.732;10.266;2022-08-19T16:17:28;0.00;;;0.00;;
20593;SDS011;10455;48.732;10.266;2022-08-19T16:22:31;0.00;;;0.00;;
20593;SDS011;10455;48.732;10.266;2022-08-19T16:27:34;0.10;;;0.10;;
20593;SDS011;10455;48.732;10.266;2022-08-19T16:32:36;0.00;;;0.00;;
20593;SDS011;10455;48.732;10.266;2022-08-19T16:37:44;0.00;;;0.00;;
20593;SDS011;10455;48.732;10.266;2022-08-19T16:42:46;0.32;;;0.32;;
20593;SDS011;10455;48.732;10.266;2022-08-19T16:47:48;0.00;;;0.00;;
20593;SDS011;10455;48.732;10.266;2022-08-19T16:52:52;0.25;;;0.25;;
20593;SDS011;10455;48.732;10.266;2022-08-19T16:57:57;0.25;;;0.25;;
20593;SDS011;10455;48.732;10.266;2022-08-19T17:03:04;0.20;;;0.20;;
20593;SDS011;10455;48.732;10.266;2022-08-19T17:08:10;0.73;;;0.68;;
20593;SDS011;10455;48.732;10.266;2022-08-19T17:13:12;0.00;;;0.00;;
20593;SDS011;10455;48.732;10.266;2022-08-19T17:18:15;0.20;;;0.20;;
20593;SDS011;10455;48.732;10.266;2022-08-19T17:23:20;0.05;;;0.05;;
20593;SDS011;10455;48.732;10.266;2022-08-19T17:28:24;0.35;;;0.30;;
20593;SDS011;10455;48.732;10.266;2022-08-19T17:33:28;2.05;;;1.95;;
20593;SDS011;10455;48.732;10.266;2022-08-19T17:38:32;0.03;;;0.03;;
20593;SDS011;10455;48.732;10.266;2022-08-19T17:43:35;0.00;;;0.00;;
20593;SDS011;10455;48.732;10.266;2022-08-19T17:48:37;2.25;;;2.10;;
20593;SDS011;10455;48.732;10.266;2022-08-19T17:53:41;0.00;;;0.00;;
20593;SDS011;10455;48.732;10.266;2022-08-19T17:58:43;0.43;;;0.20;;
20593;SDS011;10455;48.732;10.266;2022-08-19T18:03:47;0.08;;;0.08;;
20593;SDS011;10455;48.732;10.266;2022-08-19T18:08:50;0.40;;;0.40;;
20593;SDS011;10455;48.732;10.266;2022-08-19T18:13:52;0.45;;;0.45;;
20593;SDS011;10455;48.732;10.266;2022-08-19T18:18:55;0.70;;;0.70;;
20593;SDS011;10455;48.732;10.266;2022-08-19T18:23:58;0.10;;;0.10;;
20593;SDS011;10455;48.732;10.266;2022-08-19T18:29:00;0.22;;;0.22;;
20593;SDS011;10455;48.732;10.266;2022-08-19T18:34:03;0.00;;;0.00;;
20593;SDS011;10455;48.732;10.266;2022-08-19T18:39:08;0.00;;;0.00;;
20593;SDS011;10455;48.732;10.266;2022-08-19T18:44:27;0.08;;;0.08;;
20593;SDS011;10455;48.732;10.266;2022-08-19T18:49:47;0.00;;;0.00;;
20593;SDS011;10455;48.732;10.266;2022-08-19T18:54:51;0.05;;;0.05;;
20593;SDS011;10455;48.732;10.266;2022-08-19T18:59:53;1.27;;;1.17;;
20593;SDS011;10455;48.732;10.266;2022-08-19T19:04:56;0.00;;;0.00;;
20593;SDS011;10455;48.732;10.266;2022-08-19T19:09:59;0.00;;;0.00;;
20593;SDS011;10455;48.732;10.266;2022-08-19T19:15:01;0.52;;;0.52;;
20593;SDS011;10455;48.732;10.266;2022-08-19T19:20:05;1.58;;;1.48;;
20593;SDS011;10455;48.732;10.266;2022-08-19T19:25:09;0.10;;;0.10;;
20593;SDS011;10455;48.732;10.266;2022-08-19T19:30:11;0.03;;;0.03;;
20593;SDS011;10455;48.732;10.266;2022-08-19T19:35:14;0.00;;;0.00;;
20593;SDS011;10455;48.732;10.266;2022-08-19T19:40:17;0.05;;;0.05;;
20593;SDS011;10455;48.732;10.266;2022-08-19T19:45:21;0.00;;;0.00;;
20593;SDS011;10455;48.732;10.266;2022-08-19T19:50:24;0.75;;;0.63;;
20593;SDS011;10455;48.732;10.266;2022-08-19T19:55:31;0.00;;;0.00;;
20593;SDS011;10455;48.732;10.266;2022-08-19T20:00:34;0.00;;;0.00;;
20593;SDS011;10455;48.732;10.266;2022-08-19T20:05:36;0.00;;;0.00;;
20593;SDS011;10455;48.732;10.266;2022-08-19T20:10:40;1.42;;;1.05;;
20593;SDS011;10455;48.732;10.266;2022-08-19T20:15:43;0.43;;;0.43;;
20593;SDS011;10455;48.732;10.266;2022-08-19T20:20:45;0.00;;;0.00;;
20593;SDS011;10455;48.732;10.266;2022-08-19T20:25:50;1.13;;;1.10;;
20593;SDS011;10455;48.732;10.266;2022-08-19T20:30:53;0.10;;;0.10;;
20593;SDS011;10455;48.732;10.266;2022-08-19T20:35:55;0.13;;;0.13;;
20593;SDS011;10455;48.732;10.266;2022-08-19T20:40:59;0.00;;;0.00;;
20593;SDS011;10455;48.732;10.266;2022-08-19T20:46:01;0.38;;;0.38;;
20593;SDS011;10455;48.732;10.266;2022-08-19T20:51:05;0.52;;;0.52;;
20593;SDS011;10455;48.732;10.266;2022-08-19T20:56:08;1.67;;;1.55;;
20593;SDS011;10455;48.732;10.266;2022-08-19T21:01:10;1.00;;;0.45;;
20593;SDS011;10455;48.732;10.266;2022-08-19T21:06:13;0.50;;;0.50;;
20593;SDS011;10455;48.732;10.266;2022-08-19T21:11:16;0.30;;;0.30;;
20593;SDS011;10455;48.732;10.266;2022-08-19T21:16:18;1.20;;;1.15;;
20593;SDS011;10455;48.732;10.266;2022-08-19T21:21:21;0.63;;;0.63;;
20593;SDS011;10455;48.732;10.266;2022-08-19T21:26:24;1.67;;;1.58;;
20593;SDS011;10455;48.732;10.266;2022-08-19T21:31:26;0.00;;;0.00;;
20593;SDS011;10455;48.732;10.266;2022-08-19T21:36:29;1.20;;;1.13;;
20593;SDS011;10455;48.732;10.266;2022-08-19T21:41:32;4.40;;;1.33;;
20593;SDS011;10455;48.732;10.266;2022-08-19T21:46:34;4.07;;;2.38;;
20593;SDS011;10455;48.732;10.266;2022-08-19T21:51:37;0.10;;;0.10;;
20593;SDS011;10455;48.732;10.266;2022-08-19T21:56:40;0.20;;;0.20;;
20593;SDS011;10455;48.732;10.266;2022-08-19T22:01:42;0.20;;;0.17;;
20593;SDS011;10455;48.732;10.266;2022-08-19T22:06:44;1.08;;;1.08;;
20593;SDS011;10455;48.732;10.266;2022-08-19T22:11:48;0.98;;;0.98;;
20593;SDS011;10455;48.732;10.266;2022-08-19T22:16:50;0.85;;;0.85;;
20593;SDS011;10455;48.732;10.266;2022-08-19T22:21:52;0.20;;;0.20;;
20593;SDS011;10455;48.732;10.266;2022-08-19T22:26:56;1.55;;;1.45;;
20593;SDS011;10455;48.732;10.266;2022-08-19T22:31:59;0.47;;;0.43;;
20593;SDS011;10455;48.732;10.266;2022-08-19T22:37:01;0.00;;;0.00;;
20593;SDS011;10455;48.732;10.266;2022-08-19T22:42:05;0.47;;;0.47;;
20593;SDS011;10455;48.732;10.266;2022-08-19T22:47:08;0.75;;;0.43;;
20593;SDS011;10455;48.732;10.266;2022-08-19T22:52:10;0.00;;;0.00;;
20593;SDS011;10455;48.732;10.266;2022-08-19T22:57:18;0.13;;;0.13;;
20593;SDS011;10455;48.732;10.266;2022-08-19T23:02:22;0.10;;;0.10;;
20593;SDS011;10455;48.732;10.266;2022-08-19T23:07:26;0.75;;;0.75;;
20593;SDS011;10455;48.732;10.266;2022-08-19T23:12:32;0.28;;;0.28;;
20593;SDS011;10455;48.732;10.266;2022-08-19T23:17:37;1.85;;;1.35;;
20593;SDS011;10455;48.732;10.266;2022-08-19T23:22:39;1.25;;;1.15;;
20593;SDS011;10455;48.732;10.266;2022-08-19T23:27:44;0.00;;;0.00;;
20593;SDS011;10455;48.732;10.266;2022-08-19T23:33:05;3.00;;;2.45;;
20593;SDS011;10455;48.732;10.266;2022-08-19T23:38:13;0.50;;;0.50;;
20593;SDS011;10455;48.732;10.266;2022-08-19T23:43:17;0.88;;;0.88;;
20593;SDS011;10455;48.732;10.266;2022-08-19T23:48:20;0.10;;;0.10;;
20593;SDS011;10455;48.732;10.266;2022-08-19T23:53:22;0.20;;;0.20;;
20593;SDS011;10455;48.732;10.266;2022-08-19T23:58:27;0.08;;;0.08;;
